sensor_id;sensor_type;location;lat;lon;timestamp;P1;durP1;ratioP1;P2;durP2;ratioP2
69979;SDS011;57318;56.232;43.944;2022-11-15T00:00:51;5.30;;;2.25;;
69979;SDS011;57318;56.232;43.944;2022-11-15T00:03:18;17.08;;;2.97;;
69979;SDS011;57318;56.232;43.944;2022-11-15T00:05:46;7.70;;;3.40;;
69979;SDS011;57318;56.232;43.944;2022-11-15T00:08:12;9.60;;;2.80;;
69979;SDS011;57318;56.232;43.944;2022-11-15T00:10:37;5.30;;;1.77;;
69979;SDS011;57318;56.232;43.944;2022-11-15T00:13:07;5.83;;;1.70;;
69979;SDS011;57318;56.232;43.944;2022-11-15T00:15:35;3.38;;;1.48;;
69979;SDS011;57318;56.232;43.944;2022-11-15T00:18:02;4.05;;;1.60;;
69979;SDS011;57318;56.232;43.944;2022-11-15T00:20:29;6.38;;;1.63;;
69979;SDS011;57318;56.232;43.944;2022-11-15T00:22:54;1.27;;;1.05;;
69979;SDS011;57318;56.232;43.944;2022-11-15T00:25:20;2.03;;;0.93;;
69979;SDS011;57318;56.232;43.944;2022-11-15T00:27:46;2.67;;;1.03;;
69979;SDS011;57318;56.232;43.944;2022-11-15T00:30:12;1.38;;;0.90;;
69979;SDS011;57318;56.232;43.944;2022-11-15T00:32:37;2.00;;;0.87;;
69979;SDS011;57318;56.232;43.944;2022-11-15T00:35:03;4.13;;;1.10;;
69979;SDS011;57318;56.232;43.944;2022-11-15T00:37:29;3.35;;;0.93;;
69979;SDS011;57318;56.232;43.944;2022-11-15T00:39:55;2.97;;;1.10;;
69979;SDS011;57318;56.232;43.944;2022-11-15T00:42:20;5.60;;;1.20;;
69979;SDS011;57318;56.232;43.944;2022-11-15T00:44:46;5.57;;;0.90;;
69979;SDS011;57318;56.232;43.944;2022-11-15T00:47:11;2.43;;;1.30;;
69979;SDS011;57318;56.232;43.944;2022-11-15T00:49:37;2.67;;;0.90;;
69979;SDS011;57318;56.232;43.944;2022-11-15T00:52:03;6.77;;;1.20;;
69979;SDS011;57318;56.232;43.944;2022-11-15T00:54:28;3.83;;;1.50;;
69979;SDS011;57318;56.232;43.944;2022-11-15T00:56:54;5.57;;;1.37;;
69979;SDS011;57318;56.232;43.944;2022-11-15T00:59:19;4.53;;;1.20;;
69979;SDS011;57318;56.232;43.944;2022-11-15T01:01:45;2.97;;;1.10;;
69979;SDS011;57318;56.232;43.944;2022-11-15T01:04:11;6.60;;;1.57;;
69979;SDS011;57318;56.232;43.944;2022-11-15T01:06:36;2.30;;;1.20;;
69979;SDS011;57318;56.232;43.944;2022-11-15T01:09:02;9.20;;;1.93;;
69979;SDS011;57318;56.232;43.944;2022-11-15T01:11:28;1.00;;;0.77;;
69979;SDS011;57318;56.232;43.944;2022-11-15T01:13:54;2.23;;;1.20;;
69979;SDS011;57318;56.232;43.944;2022-11-15T01:16:20;1.13;;;1.02;;
69979;SDS011;57318;56.232;43.944;2022-11-15T01:18:46;2.00;;;1.33;;
69979;SDS011;57318;56.232;43.944;2022-11-15T01:21:13;1.10;;;1.00;;
69979;SDS011;57318;56.232;43.944;2022-11-15T01:23:41;1.20;;;1.00;;
69979;SDS011;57318;56.232;43.944;2022-11-15T01:26:09;3.80;;;1.05;;
69979;SDS011;57318;56.232;43.944;2022-11-15T01:28:36;3.50;;;1.10;;
69979;SDS011;57318;56.232;43.944;2022-11-15T01:31:05;2.17;;;1.20;;
69979;SDS011;57318;56.232;43.944;2022-11-15T01:33:34;4.47;;;1.10;;
69979;SDS011;57318;56.232;43.944;2022-11-15T01:36:05;2.25;;;0.90;;
69979;SDS011;57318;56.232;43.944;2022-11-15T01:38:32;1.67;;;1.00;;
69979;SDS011;57318;56.232;43.944;2022-11-15T01:40:58;3.78;;;1.20;;
69979;SDS011;57318;56.232;43.944;2022-11-15T01:43:26;4.43;;;1.00;;
69979;SDS011;57318;56.232;43.944;2022-11-15T01:45:57;1.08;;;0.98;;
69979;SDS011;57318;56.232;43.944;2022-11-15T01:48:34;3.13;;;1.20;;
69979;SDS011;57318;56.232;43.944;2022-11-15T01:51:01;1.40;;;0.88;;
69979;SDS011;57318;56.232;43.944;2022-11-15T01:53:32;3.95;;;1.10;;
69979;SDS011;57318;56.232;43.944;2022-11-15T01:56:04;6.00;;;1.48;;
69979;SDS011;57318;56.232;43.944;2022-11-15T01:58:33;1.98;;;1.40;;
69979;SDS011;57318;56.232;43.944;2022-11-15T02:00:59;2.78;;;1.20;;
69979;SDS011;57318;56.232;43.944;2022-11-15T02:03:26;4.07;;;1.43;;
69979;SDS011;57318;56.232;43.944;2022-11-15T02:05:59;2.53;;;1.48;;
69979;SDS011;57318;56.232;43.944;2022-11-15T02:08:24;2.53;;;1.13;;
69979;SDS011;57318;56.232;43.944;2022-11-15T02:10:51;4.78;;;1.20;;
69979;SDS011;57318;56.232;43.944;2022-11-15T02:13:16;3.60;;;1.30;;
69979;SDS011;57318;56.232;43.944;2022-11-15T02:16:27;2.50;;;1.10;;
69979;SDS011;57318;56.232;43.944;2022-11-15T02:18:35;1.38;;;1.00;;
69979;SDS011;57318;56.232;43.944;2022-11-15T02:29:20;3.67;;;1.30;;
69979;SDS011;57318;56.232;43.944;2022-11-15T02:35:20;3.03;;;1.15;;
69979;SDS011;57318;56.232;43.944;2022-11-15T02:38:12;4.38;;;0.90;;
69979;SDS011;57318;56.232;43.944;2022-11-15T02:41:15;0.93;;;0.73;;
69979;SDS011;57318;56.232;43.944;2022-11-15T02:43:50;3.03;;;1.00;;
69979;SDS011;57318;56.232;43.944;2022-11-15T02:49:13;3.40;;;1.20;;
69979;SDS011;57318;56.232;43.944;2022-11-15T02:51:40;5.72;;;1.13;;
69979;SDS011;57318;56.232;43.944;2022-11-15T02:54:18;2.83;;;0.98;;
69979;SDS011;57318;56.232;43.944;2022-11-15T02:56:47;0.73;;;0.73;;
69979;SDS011;57318;56.232;43.944;2022-11-15T03:06:55;4.20;;;0.90;;
69979;SDS011;57318;56.232;43.944;2022-11-15T03:09:43;2.25;;;1.10;;
69979;SDS011;57318;56.232;43.944;2022-11-15T03:12:51;2.38;;;1.00;;
69979;SDS011;57318;56.232;43.944;2022-11-15T03:15:38;1.55;;;1.13;;
69979;SDS011;57318;56.232;43.944;2022-11-15T03:18:12;3.33;;;1.20;;
69979;SDS011;57318;56.232;43.944;2022-11-15T03:20:46;1.77;;;0.93;;
69979;SDS011;57318;56.232;43.944;2022-11-15T03:23:14;5.22;;;1.30;;
69979;SDS011;57318;56.232;43.944;2022-11-15T03:25:44;2.90;;;1.52;;
69979;SDS011;57318;56.232;43.944;2022-11-15T03:28:14;5.50;;;1.38;;
69979;SDS011;57318;56.232;43.944;2022-11-15T03:30:44;4.13;;;1.40;;
69979;SDS011;57318;56.232;43.944;2022-11-15T03:33:14;3.15;;;1.40;;
69979;SDS011;57318;56.232;43.944;2022-11-15T03:35:40;5.47;;;1.40;;
69979;SDS011;57318;56.232;43.944;2022-11-15T03:38:23;6.25;;;2.10;;
69979;SDS011;57318;56.232;43.944;2022-11-15T03:41:01;3.30;;;1.30;;
69979;SDS011;57318;56.232;43.944;2022-11-15T03:43:53;3.88;;;1.30;;
69979;SDS011;57318;56.232;43.944;2022-11-15T03:46:26;7.63;;;2.40;;
69979;SDS011;57318;56.232;43.944;2022-11-15T03:49:09;7.90;;;2.10;;
69979;SDS011;57318;56.232;43.944;2022-11-15T03:51:42;4.13;;;1.92;;
69979;SDS011;57318;56.232;43.944;2022-11-15T03:54:08;5.13;;;2.10;;
69979;SDS011;57318;56.232;43.944;2022-11-15T03:56:37;9.95;;;4.05;;
69979;SDS011;57318;56.232;43.944;2022-11-15T03:59:02;8.33;;;3.90;;
69979;SDS011;57318;56.232;43.944;2022-11-15T04:01:28;9.33;;;3.37;;
69979;SDS011;57318;56.232;43.944;2022-11-15T04:03:53;10.07;;;3.50;;
69979;SDS011;57318;56.232;43.944;2022-11-15T04:06:19;11.23;;;3.47;;
69979;SDS011;57318;56.232;43.944;2022-11-15T04:08:45;11.47;;;4.23;;
69979;SDS011;57318;56.232;43.944;2022-11-15T04:11:11;4.10;;;1.60;;
69979;SDS011;57318;56.232;43.944;2022-11-15T04:13:36;7.17;;;2.07;;
69979;SDS011;57318;56.232;43.944;2022-11-15T04:16:02;6.43;;;2.40;;
69979;SDS011;57318;56.232;43.944;2022-11-15T04:18:27;10.87;;;3.40;;
69979;SDS011;57318;56.232;43.944;2022-11-15T04:20:59;8.07;;;2.63;;
69979;SDS011;57318;56.232;43.944;2022-11-15T04:23:45;11.07;;;4.55;;
69979;SDS011;57318;56.232;43.944;2022-11-15T04:26:31;11.10;;;3.78;;
69979;SDS011;57318;56.232;43.944;2022-11-15T04:28:56;14.50;;;4.17;;
69979;SDS011;57318;56.232;43.944;2022-11-15T04:31:41;10.77;;;3.45;;
69979;SDS011;57318;56.232;43.944;2022-11-15T04:34:07;13.63;;;3.65;;
69979;SDS011;57318;56.232;43.944;2022-11-15T04:39:17;6.03;;;2.72;;
69979;SDS011;57318;56.232;43.944;2022-11-15T04:41:43;3.70;;;1.77;;
69979;SDS011;57318;56.232;43.944;2022-11-15T04:44:08;2.07;;;1.37;;
69979;SDS011;57318;56.232;43.944;2022-11-15T04:46:34;4.97;;;1.98;;
69979;SDS011;57318;56.232;43.944;2022-11-15T04:49:00;4.50;;;2.17;;
69979;SDS011;57318;56.232;43.944;2022-11-15T04:51:26;3.33;;;1.80;;
69979;SDS011;57318;56.232;43.944;2022-11-15T04:53:52;4.80;;;1.63;;
69979;SDS011;57318;56.232;43.944;2022-11-15T04:56:18;5.60;;;3.38;;
69979;SDS011;57318;56.232;43.944;2022-11-15T04:58:44;16.58;;;5.80;;
69979;SDS011;57318;56.232;43.944;2022-11-15T05:01:10;21.07;;;7.37;;
69979;SDS011;57318;56.232;43.944;2022-11-15T05:03:39;15.27;;;5.93;;
69979;SDS011;57318;56.232;43.944;2022-11-15T05:06:23;20.80;;;7.47;;
69979;SDS011;57318;56.232;43.944;2022-11-15T05:08:49;21.27;;;8.07;;
69979;SDS011;57318;56.232;43.944;2022-11-15T05:11:14;18.73;;;5.80;;
69979;SDS011;57318;56.232;43.944;2022-11-15T05:13:40;13.63;;;3.77;;
69979;SDS011;57318;56.232;43.944;2022-11-15T05:16:05;8.60;;;3.60;;
69979;SDS011;57318;56.232;43.944;2022-11-15T05:18:31;10.40;;;2.92;;
69979;SDS011;57318;56.232;43.944;2022-11-15T05:21:07;6.27;;;3.73;;
69979;SDS011;57318;56.232;43.944;2022-11-15T05:26:00;10.25;;;2.45;;
69979;SDS011;57318;56.232;43.944;2022-11-15T05:28:28;6.80;;;2.33;;
69979;SDS011;57318;56.232;43.944;2022-11-15T05:31:04;9.57;;;2.55;;
69979;SDS011;57318;56.232;43.944;2022-11-15T05:33:35;8.25;;;3.60;;
69979;SDS011;57318;56.232;43.944;2022-11-15T05:36:12;20.20;;;6.63;;
69979;SDS011;57318;56.232;43.944;2022-11-15T05:38:43;10.70;;;3.75;;
69979;SDS011;57318;56.232;43.944;2022-11-15T05:41:09;12.00;;;3.90;;
69979;SDS011;57318;56.232;43.944;2022-11-15T05:43:35;8.23;;;4.40;;
69979;SDS011;57318;56.232;43.944;2022-11-15T05:46:04;10.07;;;3.20;;
69979;SDS011;57318;56.232;43.944;2022-11-15T05:48:31;6.38;;;2.85;;
69979;SDS011;57318;56.232;43.944;2022-11-15T05:50:57;8.40;;;3.30;;
69979;SDS011;57318;56.232;43.944;2022-11-15T05:53:24;13.02;;;5.05;;
69979;SDS011;57318;56.232;43.944;2022-11-15T05:55:51;27.10;;;12.25;;
69979;SDS011;57318;56.232;43.944;2022-11-15T05:58:17;35.78;;;14.90;;
69979;SDS011;57318;56.232;43.944;2022-11-15T06:00:44;34.83;;;13.45;;
69979;SDS011;57318;56.232;43.944;2022-11-15T06:03:10;33.08;;;12.75;;
69979;SDS011;57318;56.232;43.944;2022-11-15T06:05:35;40.17;;;15.57;;
69979;SDS011;57318;56.232;43.944;2022-11-15T06:08:01;55.40;;;18.43;;
69979;SDS011;57318;56.232;43.944;2022-11-15T06:10:27;58.23;;;20.00;;
69979;SDS011;57318;56.232;43.944;2022-11-15T06:12:59;51.00;;;16.07;;
69979;SDS011;57318;56.232;43.944;2022-11-15T06:15:25;25.38;;;10.30;;
69979;SDS011;57318;56.232;43.944;2022-11-15T06:17:51;14.88;;;5.50;;
69979;SDS011;57318;56.232;43.944;2022-11-15T06:20:17;8.07;;;3.60;;
69979;SDS011;57318;56.232;43.944;2022-11-15T06:22:43;8.97;;;2.93;;
69979;SDS011;57318;56.232;43.944;2022-11-15T06:25:09;8.02;;;3.15;;
69979;SDS011;57318;56.232;43.944;2022-11-15T06:27:34;6.30;;;3.07;;
69979;SDS011;57318;56.232;43.944;2022-11-15T06:30:00;12.73;;;4.30;;
69979;SDS011;57318;56.232;43.944;2022-11-15T06:32:26;11.03;;;3.80;;
69979;SDS011;57318;56.232;43.944;2022-11-15T06:34:52;10.47;;;3.17;;
69979;SDS011;57318;56.232;43.944;2022-11-15T06:37:17;12.00;;;3.40;;
69979;SDS011;57318;56.232;43.944;2022-11-15T06:39:43;6.50;;;2.83;;
69979;SDS011;57318;56.232;43.944;2022-11-15T06:42:08;6.30;;;2.57;;
69979;SDS011;57318;56.232;43.944;2022-11-15T06:44:34;4.73;;;2.40;;
69979;SDS011;57318;56.232;43.944;2022-11-15T06:47:00;5.00;;;2.73;;
69979;SDS011;57318;56.232;43.944;2022-11-15T06:49:25;8.43;;;3.50;;
69979;SDS011;57318;56.232;43.944;2022-11-15T06:51:51;7.87;;;2.90;;
69979;SDS011;57318;56.232;43.944;2022-11-15T06:54:16;8.10;;;2.87;;
69979;SDS011;57318;56.232;43.944;2022-11-15T06:56:42;7.83;;;2.50;;
69979;SDS011;57318;56.232;43.944;2022-11-15T06:59:08;6.50;;;2.90;;
69979;SDS011;57318;56.232;43.944;2022-11-15T07:01:33;5.50;;;2.43;;
69979;SDS011;57318;56.232;43.944;2022-11-15T07:03:59;5.80;;;2.30;;
69979;SDS011;57318;56.232;43.944;2022-11-15T07:06:24;5.20;;;3.33;;
69979;SDS011;57318;56.232;43.944;2022-11-15T07:08:50;10.90;;;2.90;;
69979;SDS011;57318;56.232;43.944;2022-11-15T07:11:16;7.17;;;3.40;;
69979;SDS011;57318;56.232;43.944;2022-11-15T07:13:41;7.30;;;3.30;;
69979;SDS011;57318;56.232;43.944;2022-11-15T07:16:08;12.83;;;3.30;;
69979;SDS011;57318;56.232;43.944;2022-11-15T07:18:36;5.97;;;2.20;;
69979;SDS011;57318;56.232;43.944;2022-11-15T07:21:05;7.30;;;2.42;;
69979;SDS011;57318;56.232;43.944;2022-11-15T07:23:33;6.13;;;2.22;;
69979;SDS011;57318;56.232;43.944;2022-11-15T07:26:00;4.13;;;1.83;;
69979;SDS011;57318;56.232;43.944;2022-11-15T07:28:26;7.20;;;2.20;;
69979;SDS011;57318;56.232;43.944;2022-11-15T07:30:52;9.60;;;2.95;;
69979;SDS011;57318;56.232;43.944;2022-11-15T07:33:18;5.00;;;2.43;;
69979;SDS011;57318;56.232;43.944;2022-11-15T07:35:43;8.63;;;2.77;;
69979;SDS011;57318;56.232;43.944;2022-11-15T07:38:11;5.68;;;2.75;;
69979;SDS011;57318;56.232;43.944;2022-11-15T07:40:37;5.50;;;3.07;;
69979;SDS011;57318;56.232;43.944;2022-11-15T07:43:06;3.17;;;2.40;;
69979;SDS011;57318;56.232;43.944;2022-11-15T07:45:32;7.25;;;3.33;;
69979;SDS011;57318;56.232;43.944;2022-11-15T07:48:00;10.10;;;3.72;;
69979;SDS011;57318;56.232;43.944;2022-11-15T07:50:26;7.73;;;3.00;;
69979;SDS011;57318;56.232;43.944;2022-11-15T07:52:55;6.65;;;3.15;;
69979;SDS011;57318;56.232;43.944;2022-11-15T07:55:22;7.20;;;3.13;;
69979;SDS011;57318;56.232;43.944;2022-11-15T07:57:49;5.82;;;2.90;;
69979;SDS011;57318;56.232;43.944;2022-11-15T08:00:15;12.43;;;3.27;;
69979;SDS011;57318;56.232;43.944;2022-11-15T08:02:41;8.10;;;2.40;;
69979;SDS011;57318;56.232;43.944;2022-11-15T08:05:07;8.32;;;2.78;;
69979;SDS011;57318;56.232;43.944;2022-11-15T08:07:33;8.87;;;2.70;;
69979;SDS011;57318;56.232;43.944;2022-11-15T08:09:58;10.90;;;3.23;;
69979;SDS011;57318;56.232;43.944;2022-11-15T08:12:27;4.25;;;2.38;;
69979;SDS011;57318;56.232;43.944;2022-11-15T08:14:56;8.85;;;2.75;;
69979;SDS011;57318;56.232;43.944;2022-11-15T08:17:22;8.93;;;2.43;;
69979;SDS011;57318;56.232;43.944;2022-11-15T08:19:49;6.20;;;2.70;;
69979;SDS011;57318;56.232;43.944;2022-11-15T08:22:14;13.97;;;2.70;;
69979;SDS011;57318;56.232;43.944;2022-11-15T08:24:40;7.47;;;2.90;;
69979;SDS011;57318;56.232;43.944;2022-11-15T08:27:06;10.07;;;2.73;;
69979;SDS011;57318;56.232;43.944;2022-11-15T08:29:42;10.38;;;2.58;;
69979;SDS011;57318;56.232;43.944;2022-11-15T08:32:09;16.98;;;2.80;;
69979;SDS011;57318;56.232;43.944;2022-11-15T08:34:36;10.27;;;3.10;;
69979;SDS011;57318;56.232;43.944;2022-11-15T08:37:02;11.43;;;3.65;;
69979;SDS011;57318;56.232;43.944;2022-11-15T08:39:28;13.03;;;4.27;;
69979;SDS011;57318;56.232;43.944;2022-11-15T08:41:54;10.87;;;3.80;;
69979;SDS011;57318;56.232;43.944;2022-11-15T08:44:19;17.73;;;5.53;;
69979;SDS011;57318;56.232;43.944;2022-11-15T08:46:45;13.43;;;5.53;;
69979;SDS011;57318;56.232;43.944;2022-11-15T08:49:11;8.50;;;3.38;;
69979;SDS011;57318;56.232;43.944;2022-11-15T08:51:37;10.03;;;3.10;;
69979;SDS011;57318;56.232;43.944;2022-11-15T08:54:02;10.73;;;3.40;;
69979;SDS011;57318;56.232;43.944;2022-11-15T08:56:28;8.03;;;3.60;;
69979;SDS011;57318;56.232;43.944;2022-11-15T08:58:54;12.17;;;4.20;;
69979;SDS011;57318;56.232;43.944;2022-11-15T09:01:20;12.23;;;4.70;;
69979;SDS011;57318;56.232;43.944;2022-11-15T09:03:46;7.30;;;3.60;;
69979;SDS011;57318;56.232;43.944;2022-11-15T09:06:12;8.83;;;4.57;;
69979;SDS011;57318;56.232;43.944;2022-11-15T09:08:38;8.27;;;4.22;;
69979;SDS011;57318;56.232;43.944;2022-11-15T09:11:05;6.97;;;3.55;;
69979;SDS011;57318;56.232;43.944;2022-11-15T09:13:32;12.20;;;4.28;;
69979;SDS011;57318;56.232;43.944;2022-11-15T09:15:58;18.02;;;8.13;;
69979;SDS011;57318;56.232;43.944;2022-11-15T09:18:25;20.73;;;7.32;;
69979;SDS011;57318;56.232;43.944;2022-11-15T09:20:55;20.92;;;6.40;;
69979;SDS011;57318;56.232;43.944;2022-11-15T09:23:24;16.08;;;6.57;;
69979;SDS011;57318;56.232;43.944;2022-11-15T09:28:16;14.77;;;6.72;;
69979;SDS011;57318;56.232;43.944;2022-11-15T09:30:42;22.10;;;8.87;;
69979;SDS011;57318;56.232;43.944;2022-11-15T09:33:08;28.20;;;9.63;;
69979;SDS011;57318;56.232;43.944;2022-11-15T09:35:34;7.35;;;3.42;;
69979;SDS011;57318;56.232;43.944;2022-11-15T09:38:01;5.63;;;2.40;;
69979;SDS011;57318;56.232;43.944;2022-11-15T09:40:27;7.43;;;2.70;;
69979;SDS011;57318;56.232;43.944;2022-11-15T09:48:59;7.63;;;3.28;;
69979;SDS011;57318;56.232;43.944;2022-11-15T09:51:33;7.72;;;2.72;;
69979;SDS011;57318;56.232;43.944;2022-11-15T09:54:04;8.25;;;3.13;;
69979;SDS011;57318;56.232;43.944;2022-11-15T09:56:37;6.55;;;3.33;;
69979;SDS011;57318;56.232;43.944;2022-11-15T10:04:33;6.50;;;2.50;;
69979;SDS011;57318;56.232;43.944;2022-11-15T10:12:22;12.70;;;5.97;;
69979;SDS011;57318;56.232;43.944;2022-11-15T10:23:02;6.60;;;3.15;;
69979;SDS011;57318;56.232;43.944;2022-11-15T10:25:32;12.85;;;5.32;;
69979;SDS011;57318;56.232;43.944;2022-11-15T10:30:48;13.52;;;4.88;;
69979;SDS011;57318;56.232;43.944;2022-11-15T10:41:30;6.65;;;3.75;;
69979;SDS011;57318;56.232;43.944;2022-11-15T10:44:08;9.38;;;3.47;;
69979;SDS011;57318;56.232;43.944;2022-11-15T10:46:40;5.97;;;2.95;;
69979;SDS011;57318;56.232;43.944;2022-11-15T10:49:14;5.28;;;2.00;;
69979;SDS011;57318;56.232;43.944;2022-11-15T10:51:50;8.95;;;2.80;;
69979;SDS011;57318;56.232;43.944;2022-11-15T10:56:54;10.53;;;3.53;;
69979;SDS011;57318;56.232;43.944;2022-11-15T10:59:24;12.27;;;6.03;;
69979;SDS011;57318;56.232;43.944;2022-11-15T11:01:53;17.80;;;6.53;;
69979;SDS011;57318;56.232;43.944;2022-11-15T11:04:19;13.30;;;7.13;;
69979;SDS011;57318;56.232;43.944;2022-11-15T11:09:32;15.82;;;6.88;;
69979;SDS011;57318;56.232;43.944;2022-11-15T11:11:59;13.85;;;5.60;;
69979;SDS011;57318;56.232;43.944;2022-11-15T11:14:26;14.13;;;5.18;;
69979;SDS011;57318;56.232;43.944;2022-11-15T11:44:32;8.18;;;3.45;;
69979;SDS011;57318;56.232;43.944;2022-11-15T11:47:10;8.18;;;3.50;;
69979;SDS011;57318;56.232;43.944;2022-11-15T11:49:54;8.52;;;3.70;;
69979;SDS011;57318;56.232;43.944;2022-11-15T11:52:28;14.30;;;5.80;;
69979;SDS011;57318;56.232;43.944;2022-11-15T12:00:03;13.98;;;6.65;;
69979;SDS011;57318;56.232;43.944;2022-11-15T12:05:40;7.60;;;3.95;;
69979;SDS011;57318;56.232;43.944;2022-11-15T12:08:32;15.55;;;6.03;;
69979;SDS011;57318;56.232;43.944;2022-11-15T12:16:28;9.25;;;4.28;;
69979;SDS011;57318;56.232;43.944;2022-11-15T12:18:56;8.15;;;3.28;;
69979;SDS011;57318;56.232;43.944;2022-11-15T12:21:45;6.55;;;2.60;;
69979;SDS011;57318;56.232;43.944;2022-11-15T12:24:41;5.13;;;2.40;;
69979;SDS011;57318;56.232;43.944;2022-11-15T12:27:15;6.28;;;2.72;;
69979;SDS011;57318;56.232;43.944;2022-11-15T12:29:46;5.75;;;2.92;;
69979;SDS011;57318;56.232;43.944;2022-11-15T12:34:54;3.95;;;2.45;;
69979;SDS011;57318;56.232;43.944;2022-11-15T12:43:01;7.97;;;3.65;;
69979;SDS011;57318;56.232;43.944;2022-11-15T12:46:01;10.05;;;2.92;;
69979;SDS011;57318;56.232;43.944;2022-11-15T12:51:01;16.45;;;5.13;;
69979;SDS011;57318;56.232;43.944;2022-11-15T12:53:28;11.20;;;4.43;;
69979;SDS011;57318;56.232;43.944;2022-11-15T13:06:48;18.17;;;8.10;;
69979;SDS011;57318;56.232;43.944;2022-11-15T13:12:09;25.73;;;7.18;;
69979;SDS011;57318;56.232;43.944;2022-11-15T13:14:59;17.27;;;6.65;;
69979;SDS011;57318;56.232;43.944;2022-11-15T13:17:33;13.73;;;6.30;;
69979;SDS011;57318;56.232;43.944;2022-11-15T13:30:48;25.17;;;9.18;;
69979;SDS011;57318;56.232;43.944;2022-11-15T13:33:15;14.25;;;6.78;;
69979;SDS011;57318;56.232;43.944;2022-11-15T13:35:46;16.50;;;6.88;;
69979;SDS011;57318;56.232;43.944;2022-11-15T13:38:19;16.55;;;6.90;;
69979;SDS011;57318;56.232;43.944;2022-11-15T13:40:52;11.57;;;5.20;;
69979;SDS011;57318;56.232;43.944;2022-11-15T13:51:16;10.23;;;4.28;;
69979;SDS011;57318;56.232;43.944;2022-11-15T13:54:23;10.13;;;3.35;;
69979;SDS011;57318;56.232;43.944;2022-11-15T13:57:16;12.63;;;5.30;;
69979;SDS011;57318;56.232;43.944;2022-11-15T13:59:47;15.05;;;5.28;;
69979;SDS011;57318;56.232;43.944;2022-11-15T14:02:30;11.73;;;5.25;;
69979;SDS011;57318;56.232;43.944;2022-11-15T14:04:59;18.48;;;3.95;;
69979;SDS011;57318;56.232;43.944;2022-11-15T14:07:29;11.82;;;4.90;;
69979;SDS011;57318;56.232;43.944;2022-11-15T14:09:55;10.43;;;3.70;;
69979;SDS011;57318;56.232;43.944;2022-11-15T14:12:23;11.18;;;3.60;;
69979;SDS011;57318;56.232;43.944;2022-11-15T14:17:49;7.80;;;3.67;;
69979;SDS011;57318;56.232;43.944;2022-11-15T14:20:32;11.30;;;4.67;;
69979;SDS011;57318;56.232;43.944;2022-11-15T14:23:03;8.63;;;3.60;;
69979;SDS011;57318;56.232;43.944;2022-11-15T14:25:52;9.38;;;3.38;;
69979;SDS011;57318;56.232;43.944;2022-11-15T14:30:47;12.40;;;3.50;;
69979;SDS011;57318;56.232;43.944;2022-11-15T14:33:28;11.20;;;3.70;;
69979;SDS011;57318;56.232;43.944;2022-11-15T14:36:32;13.52;;;3.65;;
69979;SDS011;57318;56.232;43.944;2022-11-15T14:38:51;9.30;;;4.15;;
69979;SDS011;57318;56.232;43.944;2022-11-15T14:41:21;7.53;;;3.13;;
69979;SDS011;57318;56.232;43.944;2022-11-15T14:43:48;5.07;;;2.72;;
69979;SDS011;57318;56.232;43.944;2022-11-15T14:46:15;12.88;;;3.20;;
69979;SDS011;57318;56.232;43.944;2022-11-15T14:48:41;22.07;;;5.87;;
69979;SDS011;57318;56.232;43.944;2022-11-15T14:51:13;12.27;;;6.00;;
69979;SDS011;57318;56.232;43.944;2022-11-15T14:53:41;16.08;;;7.15;;
69979;SDS011;57318;56.232;43.944;2022-11-15T14:56:08;20.75;;;9.20;;
69979;SDS011;57318;56.232;43.944;2022-11-15T14:58:34;18.83;;;9.57;;
69979;SDS011;57318;56.232;43.944;2022-11-15T15:00:59;9.73;;;5.00;;
69979;SDS011;57318;56.232;43.944;2022-11-15T15:03:28;9.90;;;4.55;;
69979;SDS011;57318;56.232;43.944;2022-11-15T15:05:53;8.47;;;3.57;;
69979;SDS011;57318;56.232;43.944;2022-11-15T15:08:19;13.88;;;3.50;;
69979;SDS011;57318;56.232;43.944;2022-11-15T15:10:45;9.47;;;3.33;;
69979;SDS011;57318;56.232;43.944;2022-11-15T15:13:19;10.82;;;3.58;;
69979;SDS011;57318;56.232;43.944;2022-11-15T15:15:48;13.02;;;4.63;;
69979;SDS011;57318;56.232;43.944;2022-11-15T15:18:15;7.20;;;3.17;;
69979;SDS011;57318;56.232;43.944;2022-11-15T15:20:41;12.20;;;3.85;;
69979;SDS011;57318;56.232;43.944;2022-11-15T15:23:19;8.68;;;3.33;;
69979;SDS011;57318;56.232;43.944;2022-11-15T15:25:46;12.02;;;3.53;;
69979;SDS011;57318;56.232;43.944;2022-11-15T15:28:14;9.27;;;4.03;;
69979;SDS011;57318;56.232;43.944;2022-11-15T15:30:39;7.55;;;4.15;;
69979;SDS011;57318;56.232;43.944;2022-11-15T15:33:06;9.05;;;3.85;;
69979;SDS011;57318;56.232;43.944;2022-11-15T15:35:32;7.23;;;3.43;;
69979;SDS011;57318;56.232;43.944;2022-11-15T15:37:58;8.82;;;2.85;;
69979;SDS011;57318;56.232;43.944;2022-11-15T15:40:25;6.72;;;3.25;;
69979;SDS011;57318;56.232;43.944;2022-11-15T15:42:52;6.68;;;2.72;;
69979;SDS011;57318;56.232;43.944;2022-11-15T15:45:18;7.93;;;3.63;;
69979;SDS011;57318;56.232;43.944;2022-11-15T15:47:44;7.00;;;2.92;;
69979;SDS011;57318;56.232;43.944;2022-11-15T15:52:53;11.15;;;3.30;;
69979;SDS011;57318;56.232;43.944;2022-11-15T15:55:20;7.38;;;3.17;;
69979;SDS011;57318;56.232;43.944;2022-11-15T15:57:46;14.65;;;3.80;;
69979;SDS011;57318;56.232;43.944;2022-11-15T16:00:13;8.45;;;3.17;;
69979;SDS011;57318;56.232;43.944;2022-11-15T16:02:39;7.85;;;2.97;;
69979;SDS011;57318;56.232;43.944;2022-11-15T16:05:06;11.68;;;3.45;;
69979;SDS011;57318;56.232;43.944;2022-11-15T16:07:32;7.68;;;3.67;;
69979;SDS011;57318;56.232;43.944;2022-11-15T16:09:58;11.10;;;4.00;;
69979;SDS011;57318;56.232;43.944;2022-11-15T16:12:30;11.25;;;4.95;;
69979;SDS011;57318;56.232;43.944;2022-11-15T16:14:57;11.93;;;5.00;;
69979;SDS011;57318;56.232;43.944;2022-11-15T16:17:25;14.98;;;4.88;;
69979;SDS011;57318;56.232;43.944;2022-11-15T16:19:53;16.63;;;4.53;;
69979;SDS011;57318;56.232;43.944;2022-11-15T16:22:19;14.98;;;4.95;;
69979;SDS011;57318;56.232;43.944;2022-11-15T16:24:45;13.52;;;4.75;;
69979;SDS011;57318;56.232;43.944;2022-11-15T16:27:15;12.27;;;4.80;;
69979;SDS011;57318;56.232;43.944;2022-11-15T16:29:42;7.20;;;3.63;;
69979;SDS011;57318;56.232;43.944;2022-11-15T16:32:08;8.15;;;3.88;;
69979;SDS011;57318;56.232;43.944;2022-11-15T16:34:34;9.45;;;3.63;;
69979;SDS011;57318;56.232;43.944;2022-11-15T16:37:00;6.40;;;3.17;;
69979;SDS011;57318;56.232;43.944;2022-11-15T16:39:26;6.07;;;2.97;;
69979;SDS011;57318;56.232;43.944;2022-11-15T16:41:57;5.60;;;2.72;;
69979;SDS011;57318;56.232;43.944;2022-11-15T16:44:24;6.07;;;3.28;;
69979;SDS011;57318;56.232;43.944;2022-11-15T16:46:50;6.33;;;3.70;;
69979;SDS011;57318;56.232;43.944;2022-11-15T16:49:16;9.80;;;3.17;;
69979;SDS011;57318;56.232;43.944;2022-11-15T16:51:46;8.25;;;3.40;;
69979;SDS011;57318;56.232;43.944;2022-11-15T16:54:13;5.65;;;2.83;;
69979;SDS011;57318;56.232;43.944;2022-11-15T16:56:39;6.50;;;3.15;;
69979;SDS011;57318;56.232;43.944;2022-11-15T16:59:05;10.15;;;3.88;;
69979;SDS011;57318;56.232;43.944;2022-11-15T17:01:36;12.27;;;4.22;;
69979;SDS011;57318;56.232;43.944;2022-11-15T17:04:10;7.13;;;3.20;;
69979;SDS011;57318;56.232;43.944;2022-11-15T17:06:38;7.53;;;3.47;;
69979;SDS011;57318;56.232;43.944;2022-11-15T17:11:30;6.10;;;2.80;;
69979;SDS011;57318;56.232;43.944;2022-11-15T17:13:56;6.13;;;3.23;;
69979;SDS011;57318;56.232;43.944;2022-11-15T17:16:23;12.25;;;3.42;;
69979;SDS011;57318;56.232;43.944;2022-11-15T17:18:50;7.50;;;3.20;;
69979;SDS011;57318;56.232;43.944;2022-11-15T17:21:17;8.02;;;3.17;;
69979;SDS011;57318;56.232;43.944;2022-11-15T17:23:45;7.78;;;3.15;;
69979;SDS011;57318;56.232;43.944;2022-11-15T17:26:11;7.03;;;3.67;;